createdAt,value
2022-12-11T00:00:59.717Z,92691.41
2022-12-11T00:02:01.789Z,92703.34
2022-12-11T00:03:04.276Z,92714.53
2022-12-11T00:04:05.880Z,92723.66
2022-12-11T00:05:08.082Z,92709.69
2022-12-11T00:06:12.814Z,92700.66
2022-12-11T00:07:14.478Z,92709.78
2022-12-11T00:08:16.236Z,92710.41
2022-12-11T00:09:18.831Z,92707.72
2022-12-11T00:10:20.402Z,92709.78
2022-12-11T00:11:23.296Z,92704.91
2022-12-11T00:12:24.993Z,92712.00
2022-12-11T00:13:26.583Z,92714.66
2022-12-11T00:14:29.363Z,92719.53
2022-12-11T00:15:31.033Z,92713.19
2022-12-11T00:16:32.621Z,92696.41
2022-12-11T00:17:34.253Z,92695.06
2022-12-11T00:18:36.250Z,92692.16
2022-12-11T00:19:38.018Z,92693.59
2022-12-11T00:20:39.608Z,92692.16
2022-12-11T00:21:41.189Z,92686.56
2022-12-11T00:22:42.828Z,92699.22
2022-12-11T00:23:44.470Z,92692.88
2022-12-11T00:24:46.063Z,92699.22
2022-12-11T00:25:47.909Z,92703.47
2022-12-11T00:26:49.491Z,92696.28
2022-12-11T00:27:51.042Z,92706.16
2022-12-11T00:28:55.003Z,92706.88
2022-12-11T00:29:56.699Z,92692.16
2022-12-11T00:30:58.361Z,92689.34
2022-12-11T00:32:00.009Z,92700.66
2022-12-11T00:33:01.650Z,92711.75
2022-12-11T00:34:03.289Z,92708.94
2022-12-11T00:35:05.223Z,92698.47
2022-12-11T00:36:12.639Z,92698.22
2022-12-11T00:37:14.253Z,92690.69
2022-12-11T00:38:21.570Z,92686.28
2022-12-11T00:39:23.207Z,92683.63
2022-12-11T00:40:24.814Z,92689.94
2022-12-11T00:41:26.417Z,92684.97
2022-12-11T00:42:28.066Z,92694.81
2022-12-11T00:43:29.696Z,92697.47
2022-12-11T00:44:31.266Z,92694.81
2022-12-11T00:45:40.457Z,92691.78
2022-12-11T00:46:42.037Z,92691.28
2022-12-11T00:47:43.668Z,92690.56
2022-12-11T00:48:46.356Z,92675.97
2022-12-11T00:49:49.959Z,92673.88
2022-12-11T00:50:52.270Z,92688.13
2022-12-11T00:51:53.937Z,92697.25
2022-12-11T00:52:55.535Z,92689.59
2022-12-11T00:53:57.094Z,92688.25
2022-12-11T00:54:58.638Z,92684.59
2022-12-11T00:56:00.341Z,92671.47
2022-12-11T00:57:01.898Z,92679.88
2022-12-11T00:58:04.145Z,92684.59
2022-12-11T00:59:05.769Z,92690.69
2022-12-11T01:00:08.099Z,92694.69
2022-12-11T01:01:13.631Z,92691.78
2022-12-11T01:02:15.208Z,92681.31
2022-12-11T01:03:17.645Z,92677.78
2022-12-11T01:04:19.185Z,92679.25
2022-12-11T01:05:20.955Z,92686.19
2022-12-11T01:06:25.222Z,92683.13
2022-12-11T01:07:27.119Z,92691.53
2022-12-11T01:08:30.000Z,92700.03
2022-12-11T01:09:52.988Z,92697.22
2022-12-11T01:11:05.721Z,92704.78
2022-12-11T01:12:07.343Z,92679.00
2022-12-11T01:13:10.509Z,92684.59
2022-12-11T01:14:13.094Z,92685.94
2022-12-11T01:15:14.840Z,92683.13
2022-12-11T01:16:16.568Z,92697.13
2022-12-11T01:17:18.147Z,92679.59
2022-12-11T01:18:19.721Z,92680.34
2022-12-11T01:19:21.462Z,92692.25
2022-12-11T01:20:24.544Z,92704.78
2022-12-11T01:21:26.889Z,92692.97
2022-12-11T01:22:28.449Z,92725.09
2022-12-11T01:23:30.088Z,92732.78
2022-12-11T01:24:32.000Z,92713.19
2022-12-11T01:25:38.300Z,92724.97
2022-12-11T01:26:39.945Z,92739.69
2022-12-11T01:27:41.530Z,92686.41
2022-12-11T01:28:43.891Z,92673.16
2022-12-11T01:29:45.494Z,92667.56
2022-12-11T01:30:47.156Z,92661.22
2022-12-11T01:31:48.744Z,92657.09
2022-12-11T01:32:50.373Z,92661.22
2022-12-11T01:33:54.700Z,92638.13
2022-12-11T01:34:56.367Z,92672.91
2022-12-11T01:35:57.939Z,92632.38
2022-12-11T01:36:59.583Z,92647.72
2022-12-11T01:38:01.399Z,92646.50
2022-12-11T01:39:03.013Z,92653.44
2022-12-11T01:40:06.223Z,92604.41
2022-12-11T01:41:09.106Z,92641.41
2022-12-11T01:42:18.114Z,92630.69
2022-12-11T01:43:19.817Z,92614.28
2022-12-11T01:44:21.342Z,92640.78
2022-12-11T01:45:28.021Z,92627.53
2022-12-11T01:46:30.778Z,92616.94
2022-12-11T01:47:32.561Z,92580.34
2022-12-11T01:48:36.773Z,92619.25
2022-12-11T01:49:42.464Z,92626.31
2022-12-11T01:51:05.513Z,92614.53
2022-12-11T01:52:16.375Z,92640.28
2022-12-11T01:53:26.669Z,92683.13
2022-12-11T01:54:29.640Z,92593.22
2022-12-11T01:55:32.920Z,92637.97
2022-12-11T01:56:38.001Z,92620.59
2022-12-11T01:57:43.097Z,92603.09
2022-12-11T01:58:51.558Z,92644.94
2022-12-11T01:59:53.242Z,92667.44
2022-12-11T02:00:55.252Z,92647.09
2022-12-11T02:02:06.246Z,92658.81
2022-12-11T02:03:08.586Z,92641.50
2022-12-11T02:04:11.562Z,92672.91
2022-12-11T02:05:13.799Z,92661.72
2022-12-11T02:06:48.860Z,92644.69
2022-12-11T02:07:55.537Z,92650.16
2022-12-11T02:08:57.460Z,92586.78
2022-12-11T02:09:59.090Z,92632.88
2022-12-11T02:11:16.029Z,92586.31
2022-12-11T02:12:57.037Z,92563.69
2022-12-11T02:14:19.832Z,92597.25
2022-12-11T02:15:24.114Z,92577.78
2022-12-11T02:16:38.407Z,92560.13
2022-12-11T02:17:48.911Z,92552.38
2022-12-11T02:19:29.334Z,92541.03
2022-12-11T02:20:34.030Z,92540.06
2022-12-11T02:21:41.296Z,92536.44
2022-12-11T02:22:58.433Z,92541.78
2022-12-11T02:24:15.117Z,92539.59
2022-12-11T02:25:31.201Z,92503.34
2022-12-11T02:27:05.018Z,92514.66
2022-12-11T02:28:31.158Z,92499.09
2022-12-11T02:29:43.968Z,92495.78
2022-12-11T02:30:52.515Z,92480.97
2022-12-11T02:32:01.008Z,92499.09
2022-12-11T02:33:02.801Z,92488.03
2022-12-11T02:34:38.133Z,92489.72
2022-12-11T02:35:45.724Z,92517.22
2022-12-11T02:36:53.015Z,92506.03
2022-12-11T02:38:18.745Z,92550.78
2022-12-11T02:39:23.561Z,92515.38
2022-12-11T02:40:30.064Z,92520.38
2022-12-11T02:41:33.436Z,92523.91
2022-12-11T02:42:37.936Z,92524.53
2022-12-11T02:43:41.484Z,92511.25
2022-12-11T02:44:45.225Z,92510.53
2022-12-11T02:45:48.045Z,92520.38
2022-12-11T02:46:52.400Z,92535.81
2022-12-11T02:47:57.708Z,92531.56
2022-12-11T02:48:59.653Z,92524.63
2022-12-11T02:50:07.408Z,92539.81
2022-12-11T02:51:11.215Z,92540.06
2022-12-11T02:52:15.218Z,92539.34
2022-12-11T02:53:22.193Z,92544.22
2022-12-11T02:54:29.182Z,92532.91
2022-12-11T02:55:33.682Z,92542.13
2022-12-11T02:57:08.639Z,92554.53
2022-12-11T02:58:18.168Z,92518.41
2022-12-11T02:59:28.560Z,92554.91
2022-12-11T03:00:31.715Z,92535.44
2022-12-11T03:01:33.357Z,92539.59
2022-12-11T03:02:36.057Z,92527.66
2022-12-11T03:03:37.904Z,92563.41
2022-12-11T03:04:40.564Z,92534.72
2022-12-11T03:05:42.828Z,92533.88
2022-12-11T03:06:49.480Z,92546.38
2022-12-11T03:07:51.117Z,92534.00
2022-12-11T03:08:52.780Z,92539.59
2022-12-11T03:09:54.680Z,92534.72
2022-12-11T03:10:56.358Z,92545.91
2022-12-11T03:11:57.965Z,92543.22
2022-12-11T03:13:01.053Z,92520.13
2022-12-11T03:14:05.481Z,92515.25
2022-12-11T03:15:13.972Z,92523.53
2022-12-11T03:16:29.811Z,92513.56
2022-12-11T03:18:13.938Z,92530.47
2022-12-11T03:19:18.145Z,92558.81
2022-12-11T03:20:36.846Z,92546.03
2022-12-11T03:21:49.700Z,92557.09
2022-12-11T03:23:02.831Z,92539.59
2022-12-11T03:24:19.359Z,92561.97
2022-12-11T03:25:25.937Z,92557.22
2022-12-11T03:26:32.964Z,92537.63
2022-12-11T03:27:58.873Z,92548.59
2022-12-11T03:29:04.685Z,92538.84
2022-12-11T03:30:11.726Z,92550.03
2022-12-11T03:31:21.436Z,92534.13
2022-12-11T03:32:28.561Z,92522.06
2022-12-11T03:33:37.706Z,92544.44
2022-12-11T03:35:08.714Z,92549.94
2022-12-11T03:36:16.619Z,92564.16
2022-12-11T03:37:19.965Z,92562.19
2022-12-11T03:38:28.132Z,92552.97
2022-12-11T03:39:33.864Z,92542.50
2022-12-11T03:40:37.045Z,92537.63
2022-12-11T03:41:40.153Z,92572.66
2022-12-11T03:42:45.064Z,92582.41
2022-12-11T03:43:47.293Z,92576.19
2022-12-11T03:44:52.125Z,92576.09
2022-12-11T03:45:54.611Z,92602.72
2022-12-11T03:46:58.662Z,92581.78
2022-12-11T03:48:02.768Z,92587.38
2022-12-11T03:49:11.981Z,92580.97
2022-12-11T03:50:17.372Z,92606.97
2022-12-11T03:51:20.115Z,92638.47
2022-12-11T03:52:22.950Z,92608.44
2022-12-11T03:53:26.678Z,92607.69
2022-12-11T03:54:29.043Z,92608.44
2022-12-11T03:55:32.843Z,92627.28
2022-12-11T03:56:36.924Z,92624.47
2022-12-11T03:57:38.842Z,92635.69
2022-12-11T03:58:40.409Z,92634.34
2022-12-11T03:59:42.305Z,92649.66
2022-12-11T04:00:44.019Z,92655.63
2022-12-11T04:01:45.702Z,92670.97
2022-12-11T04:03:12.879Z,92674.59
2022-12-11T04:04:15.536Z,92644.06
2022-12-11T04:05:17.250Z,92679.72
2022-12-11T04:06:18.872Z,92681.78
2022-12-11T04:07:20.521Z,92662.94
2022-12-11T04:08:23.042Z,92669.16
2022-12-11T04:09:24.676Z,92682.41
2022-12-11T04:10:26.735Z,92671.06
2022-12-11T04:11:37.460Z,92656.38
2022-12-11T04:12:39.064Z,92656.38
2022-12-11T04:13:41.956Z,92664.13
2022-12-11T04:15:02.080Z,92653.69
2022-12-11T04:16:03.925Z,92647.34
2022-12-11T04:17:05.642Z,92662.09
2022-12-11T04:18:26.760Z,92655.16
2022-12-11T04:19:47.116Z,92660.03
2022-12-11T04:21:07.144Z,92662.94
2022-12-11T04:22:14.758Z,92666.34
2022-12-11T04:23:37.030Z,92679.00
2022-12-11T04:24:38.786Z,92686.19
2022-12-11T04:25:40.500Z,92669.25
2022-12-11T04:26:46.710Z,92692.13
2022-12-11T04:27:51.087Z,92695.78
2022-12-11T04:28:52.730Z,92687.53
2022-12-11T04:29:54.270Z,92697.22
2022-12-11T04:30:55.921Z,92697.22
2022-12-11T04:31:57.513Z,92696.97
2022-12-11T04:32:59.118Z,92703.31
2022-12-11T04:34:00.725Z,92699.78
2022-12-11T04:35:02.474Z,92724.97
2022-12-11T04:36:04.258Z,92706.00
2022-12-11T04:37:05.824Z,92705.13
2022-12-11T04:38:07.406Z,92698.09
2022-12-11T04:39:08.988Z,92681.44
2022-12-11T04:40:13.984Z,92689.44
2022-12-11T04:41:17.033Z,92700.88
2022-12-11T04:42:18.576Z,92713.66
2022-12-11T04:43:20.170Z,92747.34
2022-12-11T04:44:21.759Z,92717.91
2022-12-11T04:45:23.364Z,92715.13
2022-12-11T04:46:25.807Z,92736.78
2022-12-11T04:47:27.678Z,92730.44
2022-12-11T04:48:29.493Z,92733.34
2022-12-11T04:49:31.083Z,92745.16
2022-12-11T04:50:32.711Z,92742.47
2022-12-11T04:51:34.411Z,92720.84
2022-12-11T04:52:36.053Z,92705.38
2022-12-11T04:53:38.147Z,92716.72
2022-12-11T04:54:40.046Z,92722.78
2022-12-11T04:55:41.623Z,92739.56
2022-12-11T04:56:43.194Z,92728.38
2022-12-11T04:57:44.747Z,92744.56
2022-12-11T04:58:47.137Z,92769.72
2022-12-11T04:59:49.023Z,92743.25
2022-12-11T05:00:50.843Z,92726.44
2022-12-11T05:01:52.548Z,92739.09
2022-12-11T05:02:54.254Z,92741.91
2022-12-11T05:03:56.180Z,92722.31
2022-12-11T05:04:57.809Z,92752.22
2022-12-11T05:05:59.354Z,92731.28
2022-12-11T05:07:01.864Z,92703.81
2022-12-11T05:08:03.585Z,92698.34
2022-12-11T05:09:05.194Z,92720.09
2022-12-11T05:10:07.442Z,92746.75
2022-12-11T05:11:11.626Z,92767.81
2022-12-11T05:12:13.288Z,92734.38
2022-12-11T05:13:14.833Z,92694.44
2022-12-11T05:14:16.408Z,92709.91
2022-12-11T05:15:18.287Z,92725.22
2022-12-11T05:16:19.860Z,92715.38
2022-12-11T05:17:22.141Z,92718.31
2022-12-11T05:18:24.271Z,92701.38
2022-12-11T05:19:26.674Z,92692.25
2022-12-11T05:20:28.231Z,92696.97
2022-12-11T05:21:34.769Z,92696.97
2022-12-11T05:22:37.828Z,92711.84
2022-12-11T05:23:40.184Z,92751.75
2022-12-11T05:24:42.085Z,92727.41
2022-12-11T05:25:44.438Z,92688.34
2022-12-11T05:26:46.060Z,92724.72
2022-12-11T05:27:47.735Z,92713.66
2022-12-11T05:28:54.794Z,92711.59
2022-12-11T05:29:59.505Z,92720.84
2022-12-11T05:31:08.727Z,92727.19
2022-12-11T05:32:10.461Z,92662.19
2022-12-11T05:33:12.008Z,92696.97
2022-12-11T05:34:15.238Z,92684.59
2022-12-11T05:35:16.866Z,92688.00
2022-12-11T05:36:21.820Z,92702.09
2022-12-11T05:37:23.394Z,92702.84
2022-12-11T05:38:25.440Z,92691.63
2022-12-11T05:39:27.027Z,92709.19
2022-12-11T05:40:28.648Z,92707.09
2022-12-11T05:41:32.581Z,92698.72
2022-12-11T05:42:34.623Z,92723.91
2022-12-11T05:43:37.108Z,92699.91
2022-12-11T05:44:38.720Z,92687.38
2022-12-11T05:45:40.270Z,92690.19
2022-12-11T05:46:41.910Z,92673.41
2022-12-11T05:47:43.573Z,92706.97
2022-12-11T05:48:47.385Z,92714.03
2022-12-11T05:49:48.996Z,92714.78
2022-12-11T05:51:02.278Z,92678.88
2022-12-11T05:52:04.027Z,92697.22
2022-12-11T05:53:05.629Z,92668.53
2022-12-11T05:54:07.541Z,92706.97
2022-12-11T05:55:09.743Z,92674.84
2022-12-11T05:56:15.655Z,92698.47
2022-12-11T05:57:17.341Z,92676.09
2022-12-11T05:58:19.683Z,92697.59
2022-12-11T05:59:21.366Z,92692.72
2022-12-11T06:00:22.938Z,92659.16
2022-12-11T06:01:33.907Z,92691.16
2022-12-11T06:02:36.348Z,92707.44
2022-12-11T06:03:38.410Z,92673.28
2022-12-11T06:04:39.993Z,92647.97
2022-12-11T06:05:42.256Z,92669.63
2022-12-11T06:06:43.908Z,92679.59
2022-12-11T06:07:45.521Z,92698.47
2022-12-11T06:08:50.438Z,92661.97
2022-12-11T06:09:52.049Z,92642.50
2022-12-11T06:10:53.632Z,92659.06
2022-12-11T06:11:55.189Z,92647.84
2022-12-11T06:12:56.852Z,92660.50
2022-12-11T06:13:59.567Z,92675.34
2022-12-11T06:15:01.160Z,92697.13
2022-12-11T06:16:04.765Z,92711.13
2022-12-11T06:17:06.897Z,92674.84
2022-12-11T06:18:08.593Z,92686.78
2022-12-11T06:19:15.093Z,92675.34
2022-12-11T06:20:16.828Z,92657.94
2022-12-11T06:21:24.281Z,92729.34
2022-12-11T06:22:25.871Z,92685.31
2022-12-11T06:23:27.445Z,92687.53
2022-12-11T06:24:29.031Z,92708.56
2022-12-11T06:25:31.484Z,92656.13
2022-12-11T06:26:33.253Z,92714.28
2022-12-11T06:27:35.295Z,92698.22
2022-12-11T06:28:37.495Z,92692.63
2022-12-11T06:29:39.148Z,92706.00
2022-12-11T06:30:40.682Z,92707.34
2022-12-11T06:31:43.083Z,92703.06
2022-12-11T06:32:44.919Z,92700.28
2022-12-11T06:33:46.906Z,92705.88
2022-12-11T06:34:48.505Z,92717.06
2022-12-11T06:35:50.045Z,92711.47
2022-12-11T06:36:51.640Z,92717.06
2022-12-11T06:37:53.194Z,92729.75
2022-12-11T06:38:55.483Z,92718.56
2022-12-11T06:39:57.124Z,92722.06
2022-12-11T06:41:00.317Z,92739.47
2022-12-11T06:42:01.930Z,92740.31
2022-12-11T06:43:03.530Z,92738.13
2022-12-11T06:44:05.123Z,92717.22
2022-12-11T06:45:07.822Z,92711.59
2022-12-11T06:46:12.698Z,92699.69
2022-12-11T06:47:14.328Z,92708.81
2022-12-11T06:48:15.901Z,92726.31
2022-12-11T06:49:17.490Z,92741.03
2022-12-11T06:50:19.119Z,92729.25
2022-12-11T06:51:22.763Z,92725.13
2022-12-11T06:52:25.900Z,92746.16
2022-12-11T06:53:27.843Z,92742.03
2022-12-11T06:54:29.382Z,92721.94
2022-12-11T06:55:31.007Z,92720.63
2022-12-11T06:56:34.781Z,92740.09
2022-12-11T06:57:36.937Z,92728.91
2022-12-11T06:58:40.280Z,92727.56
2022-12-11T06:59:42.134Z,92733.16
2022-12-11T07:00:44.039Z,92733.91
2022-12-11T07:01:45.862Z,92743.63
2022-12-11T07:02:47.411Z,92735.94
2022-12-11T07:03:49.174Z,92741.69
2022-12-11T07:04:55.084Z,92734.75
2022-12-11T07:06:03.431Z,92715.03
2022-12-11T07:07:05.024Z,92738.41
2022-12-11T07:08:07.383Z,92725.13
2022-12-11T07:09:10.096Z,92732.31
2022-12-11T07:10:12.012Z,92749.13
2022-12-11T07:11:15.904Z,92750.56
2022-12-11T07:12:17.705Z,92731.72
2022-12-11T07:13:19.255Z,92726.72
2022-12-11T07:14:20.833Z,92731.13
2022-12-11T07:15:22.428Z,92739.38
2022-12-11T07:16:24.073Z,92743.53
2022-12-11T07:17:25.956Z,92738.03
2022-12-11T07:18:28.271Z,92725.53
2022-12-11T07:19:29.982Z,92722.81
2022-12-11T07:20:31.515Z,92726.97
2022-12-11T07:21:33.237Z,92738.16
2022-12-11T07:22:35.040Z,92763.47
2022-12-11T07:23:36.728Z,92776.88
2022-12-11T07:24:38.370Z,92723.06
2022-12-11T07:25:39.915Z,92699.22
2022-12-11T07:26:41.608Z,92702.13
2022-12-11T07:27:43.505Z,92702.88
2022-12-11T07:28:45.245Z,92714.91
2022-12-11T07:29:46.826Z,92738.66
2022-12-11T07:30:48.489Z,92759.72
2022-12-11T07:31:50.532Z,92756.91
2022-12-11T07:32:52.289Z,92758.38
2022-12-11T07:33:55.369Z,92737.44
2022-12-11T07:34:56.925Z,92761.31
2022-12-11T07:36:02.776Z,92758.38
2022-12-11T07:37:04.400Z,92758.50
2022-12-11T07:38:05.973Z,92757.16
2022-12-11T07:39:09.062Z,92741.09
2022-12-11T07:40:11.132Z,92751.56
2022-12-11T07:41:14.904Z,92759.97
2022-12-11T07:42:16.751Z,92779.69
2022-12-11T07:43:18.302Z,92782.34
2022-12-11T07:44:19.893Z,92778.09
2022-12-11T07:45:21.497Z,92757.16
2022-12-11T07:46:26.064Z,92738.91
2022-12-11T07:47:27.686Z,92733.31
2022-12-11T07:48:29.502Z,92762.03
2022-12-11T07:49:31.161Z,92790.75
2022-12-11T07:50:36.615Z,92794.19
2022-12-11T07:51:42.790Z,92762.03
2022-12-11T07:52:44.664Z,92755.69
2022-12-11T07:53:49.003Z,92758.50
2022-12-11T07:54:51.020Z,92765.69
2022-12-11T07:55:52.623Z,92776.16
2022-12-11T07:56:54.202Z,92769.81
2022-12-11T07:57:55.914Z,92779.56
2022-12-11T07:59:00.452Z,92780.91
2022-12-11T08:00:02.014Z,92783.69
2022-12-11T08:01:03.673Z,92799.03
2022-12-11T08:02:05.386Z,92797.56
2022-12-11T08:03:06.969Z,92790.50
2022-12-11T08:04:11.493Z,92771.03
2022-12-11T08:05:13.198Z,92762.75
2022-12-11T08:06:15.295Z,92762.75
2022-12-11T08:07:16.866Z,92764.22
2022-12-11T08:08:19.712Z,92782.50
2022-12-11T08:09:22.692Z,92793.69
2022-12-11T08:10:24.281Z,92791.72
2022-12-11T08:11:27.016Z,92779.06
2022-12-11T08:12:28.566Z,92791.72
2022-12-11T08:13:30.444Z,92777.63
2022-12-11T08:14:31.979Z,92782.50
2022-12-11T08:15:33.990Z,92794.44
2022-12-11T08:16:36.540Z,92811.94
2022-12-11T08:17:40.199Z,92822.53
2022-12-11T08:18:43.141Z,92835.94
2022-12-11T08:19:44.735Z,92833.88
2022-12-11T08:20:46.456Z,92829.63
2022-12-11T08:21:48.162Z,92819.88
2022-12-11T08:22:52.342Z,92808.66
2022-12-11T08:23:56.389Z,92815.72
2022-12-11T08:24:58.036Z,92820.59
2022-12-11T08:26:01.691Z,92801.00
2022-12-11T08:27:03.399Z,92811.47
2022-12-11T08:28:05.143Z,92817.81
2022-12-11T08:29:06.761Z,92810.00
2022-12-11T08:30:09.576Z,92813.53
2022-12-11T08:31:13.348Z,92823.16
2022-12-11T08:32:16.809Z,92836.53
2022-12-11T08:33:18.388Z,92838.03
2022-12-11T08:34:19.984Z,92820.59
2022-12-11T08:35:21.593Z,92804.41
2022-12-11T08:36:23.848Z,92826.81
2022-12-11T08:37:25.432Z,92815.63
2022-12-11T08:38:27.017Z,92796.59
2022-12-11T08:39:28.585Z,92792.50
2022-12-11T08:40:30.150Z,92793.22
2022-12-11T08:41:31.788Z,92781.16
2022-12-11T08:42:33.348Z,92784.44
2022-12-11T08:43:35.319Z,92794.19
2022-12-11T08:44:36.909Z,92793.56
2022-12-11T08:45:39.451Z,92803.56
2022-12-11T08:46:41.004Z,92819.00
2022-12-11T08:47:43.091Z,92812.69
2022-12-11T08:48:44.724Z,92826.09
2022-12-11T08:49:46.324Z,92814.28
2022-12-11T08:50:47.864Z,92807.06
2022-12-11T08:51:49.394Z,92824.59
2022-12-11T08:52:51.057Z,92823.16
2022-12-11T08:53:58.883Z,92814.63
2022-12-11T08:55:00.479Z,92800.88
2022-12-11T08:56:07.677Z,92823.16
2022-12-11T08:57:09.266Z,92823.28
2022-12-11T08:58:10.813Z,92815.47
2022-12-11T08:59:12.582Z,92817.69
2022-12-11T09:00:15.368Z,92825.34
2022-12-11T09:01:21.672Z,92832.16
2022-12-11T09:02:23.472Z,92811.94
2022-12-11T09:03:25.621Z,92807.81
2022-12-11T09:04:27.259Z,92804.41
2022-12-11T09:05:28.784Z,92810.75
2022-12-11T09:06:32.930Z,92807.81
2022-12-11T09:07:35.450Z,92806.59
2022-12-11T09:08:37.884Z,92803.78
2022-12-11T09:09:39.477Z,92812.19
2022-12-11T09:10:41.109Z,92809.41
2022-12-11T09:11:42.884Z,92815.00
2022-12-11T09:12:44.477Z,92817.81
2022-12-11T09:13:46.219Z,92801.72
2022-12-11T09:14:47.888Z,92787.16
2022-12-11T09:15:49.523Z,92784.34
2022-12-11T09:16:51.198Z,92798.38
2022-12-11T09:17:52.767Z,92803.97
2022-12-11T09:18:57.288Z,92802.44
2022-12-11T09:19:59.026Z,92789.19
2022-12-11T09:21:06.503Z,92806.59
2022-12-11T09:22:11.186Z,92792.13
2022-12-11T09:23:12.776Z,92816.63
2022-12-11T09:24:15.189Z,92826.38
2022-12-11T09:25:16.843Z,92822.22
2022-12-11T09:26:20.137Z,92801.72
2022-12-11T09:27:22.194Z,92791.25
2022-12-11T09:28:24.407Z,92787.72
2022-12-11T09:29:25.978Z,92801.88
2022-12-11T09:30:27.590Z,92817.97
2022-12-11T09:31:31.454Z,92815.16
2022-12-11T09:32:33.033Z,92791.97
2022-12-11T09:33:34.660Z,92793.50
2022-12-11T09:34:36.238Z,92790.53
2022-12-11T09:35:37.806Z,92805.25
2022-12-11T09:36:41.058Z,92782.84
2022-12-11T09:37:42.719Z,92775.97
2022-12-11T09:38:44.849Z,92781.56
2022-12-11T09:39:46.538Z,92786.53
2022-12-11T09:40:48.101Z,92784.47
2022-12-11T09:41:55.358Z,92775.97
2022-12-11T09:42:59.752Z,92789.97
2022-12-11T09:44:24.679Z,92797.22
2022-12-11T09:45:26.304Z,92792.75
2022-12-11T09:46:33.730Z,92777.97
2022-12-11T09:47:42.604Z,92761.06
2022-12-11T09:48:49.232Z,92757.41
2022-12-11T09:50:02.704Z,92763.13
2022-12-11T09:51:15.446Z,92776.53
2022-12-11T09:52:37.704Z,92768.84
2022-12-11T09:53:39.603Z,92757.91
2022-12-11T09:54:49.241Z,92760.59
2022-12-11T09:56:27.654Z,92782.13
2022-12-11T09:57:37.145Z,92773.25
2022-12-11T09:58:38.654Z,92780.47
2022-12-11T10:00:12.350Z,92773.16
2022-12-11T10:01:40.765Z,92769.56
2022-12-11T10:02:45.302Z,92772.69
2022-12-11T10:04:07.949Z,92772.53
2022-12-11T10:05:18.558Z,92779.50
2022-12-11T10:06:33.130Z,92779.50
2022-12-11T10:08:00.814Z,92769.56
2022-12-11T10:09:24.347Z,92776.19
2022-12-11T10:10:44.128Z,92764.75
2022-12-11T10:12:03.973Z,92771.09
2022-12-11T10:13:22.208Z,92772.69
2022-12-11T10:15:01.282Z,92783.47
2022-12-11T10:16:33.385Z,92767.28
2022-12-11T10:17:38.468Z,92769.56
2022-12-11T10:18:40.996Z,92772.53
2022-12-11T10:19:43.042Z,92775.97
2022-12-11T10:20:45.432Z,92778.75
2022-12-11T10:21:48.867Z,92776.69
2022-12-11T10:22:52.637Z,92766.22
2022-12-11T10:23:59.256Z,92762.06
2022-12-11T10:25:13.569Z,92777.41
2022-12-11T10:26:21.288Z,92783.13
2022-12-11T10:27:28.584Z,92779.13
2022-12-11T10:28:30.204Z,92780.56
2022-12-11T10:29:31.739Z,92790.31
2022-12-11T10:30:38.018Z,92789.34
2022-12-11T10:31:48.885Z,92789.59
2022-12-11T10:32:50.425Z,92785.44
2022-12-11T10:34:03.817Z,92776.06
2022-12-11T10:35:06.683Z,92788.97
2022-12-11T10:36:10.481Z,92788.97
2022-12-11T10:37:12.024Z,92766.56
2022-12-11T10:38:13.760Z,92765.25
2022-12-11T10:39:20.539Z,92762.31
2022-12-11T10:40:23.130Z,92760.38
2022-12-11T10:41:31.860Z,92770.13
2022-12-11T10:42:33.588Z,92755.63
2022-12-11T10:43:46.227Z,92755.50
2022-12-11T10:45:01.539Z,92756.22
2022-12-11T10:46:04.887Z,92761.34
2022-12-11T10:47:13.788Z,92755.72
2022-12-11T10:48:15.364Z,92748.06
2022-12-11T10:49:31.534Z,92769.75
2022-12-11T10:50:33.461Z,92763.75
2022-12-11T10:51:37.752Z,92752.56
2022-12-11T10:52:44.709Z,92751.59
2022-12-11T10:53:55.463Z,92753.06
2022-12-11T10:55:17.199Z,92755.88
2022-12-11T10:56:29.709Z,92763.03
2022-12-11T10:57:35.445Z,92763.16
2022-12-11T10:58:47.218Z,92749.03
2022-12-11T10:59:52.576Z,92751.09
2022-12-11T11:01:10.960Z,92747.47
2022-12-11T11:02:26.548Z,92740.38
2022-12-11T11:03:29.412Z,92750.50
2022-12-11T11:04:35.368Z,92739.91
2022-12-11T11:05:37.721Z,92746.22
2022-12-11T11:06:39.462Z,92739.16
2022-12-11T11:07:41.661Z,92741.88
2022-12-11T11:08:49.827Z,92742.47
2022-12-11T11:10:04.035Z,92758.78
2022-12-11T11:11:05.886Z,92750.38
2022-12-11T11:12:24.699Z,92743.06
2022-12-11T11:13:29.914Z,92737.72
2022-12-11T11:14:31.461Z,92736.25
2022-12-11T11:15:33.313Z,92743.31
2022-12-11T11:16:39.997Z,92745.88
2022-12-11T11:17:55.445Z,92736.03
2022-12-11T11:18:58.275Z,92736.25
2022-12-11T11:20:07.458Z,92734.06
2022-12-11T11:21:20.064Z,92736.03
2022-12-11T11:22:21.823Z,92736.25
2022-12-11T11:23:24.706Z,92738.94
2022-12-11T11:24:53.991Z,92733.09
2022-12-11T11:25:58.688Z,92742.34
2022-12-11T11:27:15.982Z,92738.19
2022-12-11T11:28:25.900Z,92751.47
2022-12-11T11:29:34.091Z,92735.25
2022-12-11T11:30:42.540Z,92733.81
2022-12-11T11:31:44.213Z,92745.97
2022-12-11T11:32:46.098Z,92738.06
2022-12-11T11:33:47.610Z,92744.53
2022-12-11T11:34:49.213Z,92738.19
2022-12-11T11:35:54.450Z,92742.22
2022-12-11T11:36:57.907Z,92727.72
2022-12-11T11:38:16.188Z,92730.28
2022-12-11T11:39:20.974Z,92736.13
2022-12-11T11:40:31.198Z,92734.53
2022-12-11T11:41:50.715Z,92731.75
2022-12-11T11:43:06.703Z,92729.06
2022-12-11T11:44:13.278Z,92724.31
2022-12-11T11:45:23.091Z,92733.31
2022-12-11T11:46:37.458Z,92734.78
2022-12-11T11:47:48.412Z,92730.66
2022-12-11T11:49:00.382Z,92731.97
2022-12-11T11:50:22.334Z,92726.28
2022-12-11T11:51:48.006Z,92713.63
2022-12-11T11:53:14.228Z,92702.41
2022-12-11T11:54:34.577Z,92710.81
2022-12-11T11:56:02.216Z,92708.13
2022-12-11T11:57:17.951Z,92706.66
2022-12-11T11:58:27.205Z,92701.91
2022-12-11T11:59:36.416Z,92698.38
2022-12-11T12:00:38.130Z,92695.56
2022-12-11T12:01:42.768Z,92703.88
2022-12-11T12:02:47.107Z,92713.63
2022-12-11T12:03:49.755Z,92706.53
2022-12-11T12:04:51.923Z,92707.25
2022-12-11T12:05:59.379Z,92709.22
2022-12-11T12:07:28.546Z,92700.69
2022-12-11T12:08:33.030Z,92691.56
2022-12-11T12:09:55.045Z,92699.25
2022-12-11T12:11:07.989Z,92708.38
2022-12-11T12:12:25.665Z,92717.50
2022-12-11T12:13:49.653Z,92707.88
2022-12-11T12:15:14.561Z,92705.09
2022-12-11T12:16:52.556Z,92717.25
2022-12-11T12:17:58.309Z,92703.63
2022-12-11T12:19:13.528Z,92728.69
2022-12-11T12:20:27.658Z,92729.91
2022-12-11T12:21:37.597Z,92739.78
2022-12-11T12:22:51.191Z,92721.41
2022-12-11T12:24:24.735Z,92696.75
2022-12-11T12:25:32.283Z,92693.13
2022-12-11T12:26:46.975Z,92704.34
2022-12-11T12:28:03.669Z,92709.94
2022-12-11T12:29:20.937Z,92708.34
2022-12-11T12:30:23.870Z,92717.00
2022-12-11T12:31:28.620Z,92725.38
2022-12-11T12:32:55.104Z,92725.88
2022-12-11T12:34:14.709Z,92735.13
2022-12-11T12:35:36.372Z,92733.78
2022-12-11T12:37:27.596Z,92751.81
2022-12-11T12:38:42.923Z,92760.44
2022-12-11T12:40:06.296Z,92761.97
2022-12-11T12:41:49.582Z,92765.81
2022-12-11T12:43:08.931Z,92777.13
2022-12-11T12:44:20.293Z,92770.09
2022-12-11T12:45:42.935Z,92764.22
2022-12-11T12:46:53.263Z,92765.69
2022-12-11T12:47:54.801Z,92770.09
2022-12-11T12:48:59.111Z,92770.81
2022-12-11T12:50:02.895Z,92773.47
2022-12-11T12:51:04.990Z,92779.22
2022-12-11T12:52:13.482Z,92779.22
2022-12-11T12:53:23.276Z,92784.09